createdAt,value
2022-11-26T00:00:26.277Z,15.00
2022-11-26T00:02:56.202Z,15.60
2022-11-26T00:05:24.841Z,15.33
2022-11-26T00:07:55.608Z,15.80
2022-11-26T00:10:25.171Z,15.23
2022-11-26T00:12:53.733Z,15.53
2022-11-26T00:15:22.932Z,15.03
2022-11-26T00:17:51.834Z,15.30
2022-11-26T00:20:23.448Z,14.57
2022-11-26T00:22:52.747Z,14.27
2022-11-26T00:25:22.396Z,14.40
2022-11-26T00:27:50.817Z,15.43
2022-11-26T00:30:20.325Z,14.40
2022-11-26T00:32:48.848Z,13.87
2022-11-26T00:35:17.713Z,14.23
2022-11-26T00:37:49.252Z,14.30
2022-11-26T00:40:20.802Z,14.10
2022-11-26T00:42:49.105Z,13.60
2022-11-26T00:45:18.446Z,13.87
2022-11-26T00:47:46.740Z,14.00
2022-11-26T00:50:16.065Z,13.77
2022-11-26T00:52:44.546Z,13.80
2022-11-26T00:55:18.020Z,14.20
2022-11-26T00:57:46.442Z,13.77
2022-11-26T01:00:18.904Z,13.93
2022-11-26T01:02:47.726Z,14.10
2022-11-26T01:05:16.728Z,13.73
2022-11-26T01:07:45.439Z,14.67
2022-11-26T01:10:18.615Z,14.10
2022-11-26T01:12:47.112Z,14.73
2022-11-26T01:15:15.835Z,14.93
2022-11-26T01:17:45.273Z,14.73
2022-11-26T01:20:25.323Z,14.50
2022-11-26T01:22:54.544Z,14.63
2022-11-26T01:25:24.708Z,14.47
2022-11-26T01:27:53.015Z,13.93
2022-11-26T01:30:22.533Z,13.63
2022-11-26T01:32:51.387Z,14.07
2022-11-26T01:35:20.532Z,14.37
2022-11-26T01:37:49.163Z,14.80
2022-11-26T01:40:28.961Z,15.07
2022-11-26T01:42:59.764Z,15.60
2022-11-26T01:45:28.823Z,15.43
2022-11-26T01:47:57.120Z,15.40
2022-11-26T01:50:44.292Z,15.73
2022-11-26T01:53:14.764Z,15.30
2022-11-26T01:55:48.047Z,16.07
2022-11-26T01:58:17.682Z,15.93
2022-11-26T02:00:46.324Z,16.13
2022-11-26T02:03:14.658Z,15.77
2022-11-26T02:05:44.580Z,16.77
2022-11-26T02:08:13.380Z,15.77
2022-11-26T02:10:41.595Z,16.57
2022-11-26T02:13:11.306Z,16.70
2022-11-26T02:15:43.688Z,16.53
2022-11-26T02:18:12.129Z,16.83
2022-11-26T02:20:43.468Z,18.20
2022-11-26T02:23:30.368Z,16.63
2022-11-26T02:26:25.585Z,17.23
2022-11-26T02:29:02.062Z,17.43
2022-11-26T02:31:35.782Z,16.73
2022-11-26T02:34:08.760Z,16.93
2022-11-26T02:36:38.968Z,16.70
2022-11-26T02:39:16.687Z,17.87
2022-11-26T02:41:46.227Z,17.17
2022-11-26T02:44:15.614Z,17.73
2022-11-26T02:46:45.652Z,17.43
2022-11-26T02:49:15.310Z,18.70
2022-11-26T02:51:43.817Z,17.13
2022-11-26T02:54:13.055Z,17.17
2022-11-26T02:56:42.306Z,18.43
2022-11-26T02:59:11.870Z,17.80
2022-11-26T03:01:42.260Z,17.90
2022-11-26T03:04:14.609Z,17.90
2022-11-26T03:06:43.116Z,18.33
2022-11-26T03:09:11.421Z,18.53
2022-11-26T03:11:39.715Z,18.20
2022-11-26T03:14:08.034Z,18.47
2022-11-26T03:16:36.412Z,17.97
2022-11-26T03:19:04.760Z,17.87
2022-11-26T03:21:34.651Z,18.43
2022-11-26T03:24:02.947Z,18.27
2022-11-26T03:26:31.409Z,18.13
2022-11-26T03:28:59.641Z,18.60
2022-11-26T03:31:27.966Z,17.17
2022-11-26T03:33:56.342Z,17.73
2022-11-26T03:36:24.582Z,18.10
2022-11-26T03:38:54.293Z,17.73
2022-11-26T03:41:22.574Z,16.57
2022-11-26T03:43:51.020Z,17.23
2022-11-26T03:46:19.390Z,17.40
2022-11-26T03:48:47.637Z,15.47
2022-11-26T03:51:15.987Z,15.80
2022-11-26T03:53:44.266Z,15.83
2022-11-26T03:56:13.862Z,17.30
2022-11-26T03:58:42.313Z,15.83
2022-11-26T04:01:11.525Z,14.90
2022-11-26T04:03:39.965Z,14.30
2022-11-26T04:06:08.649Z,14.97
2022-11-26T04:08:36.903Z,14.43
2022-11-26T04:11:05.228Z,13.83
2022-11-26T04:13:34.924Z,13.43
2022-11-26T04:16:03.223Z,13.40
2022-11-26T04:18:31.519Z,13.60
2022-11-26T04:21:00.138Z,12.63
2022-11-26T04:23:28.557Z,13.50
2022-11-26T04:25:56.856Z,12.67
2022-11-26T04:28:25.127Z,12.23
2022-11-26T04:30:54.821Z,11.90
2022-11-26T04:33:23.169Z,12.33
2022-11-26T04:35:51.795Z,12.07
2022-11-26T04:38:24.262Z,12.20
2022-11-26T04:40:54.225Z,11.00
2022-11-26T04:43:22.640Z,11.53
2022-11-26T04:45:51.025Z,11.67
2022-11-26T04:48:20.658Z,10.83
2022-11-26T04:50:50.078Z,11.47
2022-11-26T04:53:22.108Z,11.63
2022-11-26T04:55:50.944Z,12.17
2022-11-26T04:58:19.624Z,11.20
2022-11-26T05:00:50.946Z,12.17
2022-11-26T05:03:21.279Z,11.00
2022-11-26T05:05:49.620Z,12.10
2022-11-26T05:08:17.875Z,11.57
2022-11-26T05:10:46.163Z,12.33
2022-11-26T05:13:14.435Z,12.90
2022-11-26T05:15:42.750Z,12.50
2022-11-26T05:18:11.130Z,13.20
2022-11-26T05:20:40.724Z,12.90
2022-11-26T05:23:09.037Z,13.67
2022-11-26T05:25:37.347Z,13.63
2022-11-26T05:28:05.736Z,13.50
2022-11-26T05:30:34.059Z,14.33
2022-11-26T05:33:02.331Z,13.93
2022-11-26T05:35:30.834Z,15.10
2022-11-26T05:38:00.531Z,15.37
2022-11-26T05:40:28.842Z,16.50
2022-11-26T05:42:57.111Z,15.20
2022-11-26T05:45:25.472Z,15.40
2022-11-26T05:47:53.830Z,15.70
2022-11-26T05:50:22.143Z,16.67
2022-11-26T05:52:50.458Z,16.10
2022-11-26T05:55:20.214Z,16.97
2022-11-26T05:57:48.530Z,16.57
2022-11-26T06:00:17.165Z,15.67
2022-11-26T06:02:45.597Z,16.70
2022-11-26T06:05:13.993Z,16.27
2022-11-26T06:07:44.972Z,15.87
2022-11-26T06:10:13.727Z,16.83
2022-11-26T06:12:43.381Z,15.87
2022-11-26T06:15:11.828Z,17.77
2022-11-26T06:17:40.087Z,17.00
2022-11-26T06:20:08.984Z,16.27
2022-11-26T06:22:38.626Z,17.53
2022-11-26T06:25:07.372Z,17.53
2022-11-26T06:27:35.576Z,18.00
2022-11-26T06:30:05.786Z,17.33
2022-11-26T06:32:34.220Z,16.77
2022-11-26T06:35:02.457Z,17.00
2022-11-26T06:37:30.817Z,17.20
2022-11-26T06:39:59.106Z,18.17
2022-11-26T06:42:27.384Z,17.17
2022-11-26T06:44:59.654Z,17.47
2022-11-26T06:47:29.786Z,16.73
2022-11-26T06:49:58.085Z,17.97
2022-11-26T06:52:26.364Z,19.43
2022-11-26T06:54:54.658Z,19.77
2022-11-26T06:57:22.958Z,16.03
2022-11-26T06:59:52.743Z,14.63
2022-11-26T07:02:21.055Z,14.07
2022-11-26T07:04:50.883Z,13.00
2022-11-26T07:07:19.232Z,13.23
2022-11-26T07:09:47.639Z,13.63
2022-11-26T07:12:15.964Z,13.27
2022-11-26T07:14:44.523Z,13.47
2022-11-26T07:17:12.748Z,12.97
2022-11-26T07:19:41.018Z,14.43
2022-11-26T07:22:10.655Z,13.10
2022-11-26T07:24:39.169Z,12.53
2022-11-26T07:27:07.804Z,12.07
2022-11-26T07:29:36.050Z,13.17
2022-11-26T07:32:04.351Z,15.50
2022-11-26T07:34:32.712Z,15.40
2022-11-26T07:37:01.004Z,16.40
2022-11-26T07:39:30.784Z,15.93
2022-11-26T07:41:59.083Z,16.10
2022-11-26T07:44:27.510Z,16.90
2022-11-26T07:46:55.849Z,14.97
2022-11-26T07:49:24.194Z,15.23
2022-11-26T07:51:52.514Z,15.27
2022-11-26T07:54:20.828Z,15.70
2022-11-26T07:56:50.612Z,17.33
2022-11-26T07:59:18.885Z,18.97
2022-11-26T08:01:47.251Z,17.70
2022-11-26T08:04:15.528Z,19.07
2022-11-26T08:06:43.782Z,19.07
2022-11-26T08:09:12.401Z,23.27
2022-11-26T08:11:40.708Z,20.60
2022-11-26T08:14:12.361Z,20.30
2022-11-26T08:16:40.970Z,20.00
2022-11-26T08:19:10.671Z,19.97
2022-11-26T08:21:39.567Z,21.20
2022-11-26T08:24:08.120Z,21.10
2022-11-26T08:26:42.524Z,22.27
2022-11-26T08:29:14.022Z,22.40
2022-11-26T08:31:46.109Z,23.30
2022-11-26T08:34:16.017Z,24.70
2022-11-26T08:36:44.471Z,23.10
2022-11-26T08:39:14.048Z,24.30
2022-11-26T08:41:44.996Z,25.93
2022-11-26T08:44:18.576Z,26.63
2022-11-26T08:46:46.830Z,25.60
2022-11-26T08:49:16.835Z,24.37
2022-11-26T08:51:45.495Z,26.47
2022-11-26T08:54:13.939Z,26.50
2022-11-26T08:56:42.343Z,27.90
2022-11-26T08:59:10.590Z,27.43
2022-11-26T09:01:40.316Z,28.10
2022-11-26T09:04:08.620Z,27.63
2022-11-26T09:06:37.724Z,29.70
2022-11-26T09:09:17.407Z,28.33
2022-11-26T09:11:47.544Z,30.07
2022-11-26T09:14:16.832Z,29.23
2022-11-26T09:16:46.731Z,30.77
2022-11-26T09:19:15.861Z,32.87
2022-11-26T09:21:44.147Z,34.03
2022-11-26T09:24:12.462Z,35.00
2022-11-26T09:26:40.807Z,35.50
2022-11-26T09:29:09.149Z,35.50
2022-11-26T09:31:49.734Z,36.50
2022-11-26T09:34:27.163Z,35.20
2022-11-26T09:36:55.461Z,35.67
2022-11-26T09:39:23.770Z,33.67
2022-11-26T09:41:55.418Z,32.67
2022-11-26T09:44:26.622Z,32.13
2022-11-26T09:47:12.790Z,31.23
2022-11-26T09:49:46.051Z,32.57
2022-11-26T09:52:15.417Z,30.50
2022-11-26T09:54:44.267Z,29.93
2022-11-26T09:57:19.924Z,29.40
2022-11-26T09:59:48.918Z,30.00
2022-11-26T10:02:17.288Z,29.37
2022-11-26T10:04:47.884Z,29.63
2022-11-26T10:07:25.891Z,29.73
2022-11-26T10:09:59.784Z,29.23
2022-11-26T10:12:50.294Z,29.90
2022-11-26T10:15:29.819Z,28.03
2022-11-26T10:18:01.228Z,29.07
2022-11-26T10:20:51.857Z,29.93
2022-11-26T10:23:23.366Z,28.50
2022-11-26T10:25:52.876Z,28.80
2022-11-26T10:28:22.292Z,28.43
2022-11-26T10:30:54.671Z,27.50
2022-11-26T10:33:23.017Z,26.47
2022-11-26T10:35:52.650Z,28.10
2022-11-26T10:38:21.278Z,24.90
2022-11-26T10:40:49.574Z,25.43
2022-11-26T10:43:20.234Z,26.10
2022-11-26T10:45:49.698Z,25.47
2022-11-26T10:48:21.488Z,24.43
2022-11-26T10:50:59.056Z,23.53
2022-11-26T10:53:28.352Z,24.13
2022-11-26T10:55:57.274Z,25.87
2022-11-26T10:58:26.628Z,24.73
2022-11-26T11:00:59.913Z,24.43
2022-11-26T11:03:59.858Z,22.37
2022-11-26T11:06:29.723Z,23.23
2022-11-26T11:08:58.184Z,21.93
2022-11-26T11:11:27.610Z,21.33
2022-11-26T11:13:55.932Z,20.97
2022-11-26T11:16:28.040Z,19.77
2022-11-26T11:18:57.447Z,18.50
2022-11-26T11:21:29.353Z,18.47
2022-11-26T11:24:09.595Z,18.20
2022-11-26T11:26:43.380Z,17.20
2022-11-26T11:29:25.858Z,18.10
2022-11-26T11:31:54.375Z,17.87
2022-11-26T11:34:23.465Z,17.77
2022-11-26T11:37:00.387Z,17.80
2022-11-26T11:39:31.344Z,17.63
2022-11-26T11:42:00.034Z,16.10
2022-11-26T11:44:29.583Z,15.83
2022-11-26T11:47:09.709Z,16.03
2022-11-26T11:49:44.840Z,15.20
2022-11-26T11:52:17.766Z,16.17
2022-11-26T11:54:54.421Z,17.80
2022-11-26T11:57:27.020Z,15.67
2022-11-26T12:00:13.154Z,14.73
2022-11-26T12:02:57.621Z,15.30
2022-11-26T12:05:33.861Z,14.03
2022-11-26T12:08:07.191Z,14.47
2022-11-26T12:10:41.976Z,14.87
2022-11-26T12:13:12.570Z,12.97
2022-11-26T12:15:43.994Z,13.27
2022-11-26T12:18:20.352Z,12.77
2022-11-26T12:20:51.111Z,12.53
2022-11-26T12:23:27.219Z,14.17
2022-11-26T12:26:00.218Z,12.37
2022-11-26T12:28:29.718Z,13.63
2022-11-26T12:31:01.386Z,13.07
2022-11-26T12:33:33.607Z,12.37
2022-11-26T12:36:07.153Z,13.50
2022-11-26T12:38:36.946Z,12.53
2022-11-26T12:41:08.293Z,12.30
2022-11-26T12:43:45.091Z,12.67
2022-11-26T12:46:17.962Z,13.77
2022-11-26T12:48:49.088Z,11.67
2022-11-26T12:51:21.998Z,13.20
2022-11-26T12:53:54.068Z,17.17
2022-11-26T12:56:26.592Z,12.33
2022-11-26T12:58:58.573Z,12.37
2022-11-26T13:01:28.006Z,12.43
2022-11-26T13:04:21.533Z,13.10
2022-11-26T13:06:53.464Z,12.03
2022-11-26T13:09:30.103Z,12.13
2022-11-26T13:12:02.432Z,11.67
2022-11-26T13:14:36.175Z,11.77
2022-11-26T13:17:07.172Z,10.77
2022-11-26T13:19:37.938Z,11.40
2022-11-26T13:22:14.001Z,11.57
2022-11-26T13:24:51.142Z,10.80
2022-11-26T13:27:25.738Z,10.77
2022-11-26T13:30:02.619Z,11.00
2022-11-26T13:32:45.000Z,11.03
2022-11-26T13:35:18.760Z,10.40
2022-11-26T13:37:51.937Z,12.60
2022-11-26T13:40:35.299Z,10.57
2022-11-26T13:43:21.869Z,11.70
2022-11-26T13:46:04.332Z,12.00
2022-11-26T13:48:36.960Z,12.90
2022-11-26T13:51:09.011Z,12.93
2022-11-26T13:53:39.715Z,10.30
2022-11-26T13:56:09.344Z,11.23
2022-11-26T13:58:38.936Z,10.00
2022-11-26T14:01:22.699Z,9.30
2022-11-26T14:03:52.461Z,9.57
2022-11-26T14:06:20.731Z,10.20
2022-11-26T14:08:49.729Z,14.50
2022-11-26T14:11:32.857Z,15.60
2022-11-26T14:14:16.014Z,14.40
2022-11-26T14:16:59.195Z,9.10
2022-11-26T14:19:48.986Z,12.53
2022-11-26T14:22:28.011Z,8.47
2022-11-26T14:25:00.555Z,8.67
2022-11-26T14:27:30.719Z,8.73
2022-11-26T14:30:04.739Z,7.73
2022-11-26T14:32:35.392Z,7.30
2022-11-26T14:35:05.349Z,6.80
2022-11-26T14:37:33.723Z,6.90
2022-11-26T14:40:02.664Z,6.60
2022-11-26T14:42:31.244Z,8.00
2022-11-26T14:45:03.367Z,8.00
2022-11-26T14:47:32.103Z,8.40
2022-11-26T14:50:01.851Z,6.80
2022-11-26T14:52:34.475Z,7.23
2022-11-26T14:55:04.145Z,7.57
2022-11-26T14:57:37.711Z,7.50
2022-11-26T15:00:08.706Z,7.50
2022-11-26T15:02:40.581Z,7.77
2022-11-26T15:05:15.372Z,7.20
2022-11-26T15:07:45.181Z,7.87
2022-11-26T15:10:20.412Z,7.73
2022-11-26T15:12:49.713Z,7.33
2022-11-26T15:15:19.755Z,6.80
2022-11-26T15:17:50.776Z,6.43
2022-11-26T15:20:19.890Z,6.37
2022-11-26T15:22:52.084Z,7.47
2022-11-26T15:25:21.491Z,7.27
2022-11-26T15:27:54.833Z,6.90
2022-11-26T15:30:24.236Z,6.37
2022-11-26T15:32:58.229Z,6.83
2022-11-26T15:35:26.555Z,6.90
2022-11-26T15:37:56.256Z,6.37
2022-11-26T15:40:25.592Z,6.50
2022-11-26T15:42:55.932Z,6.60
2022-11-26T15:45:24.857Z,7.13
2022-11-26T15:47:54.414Z,6.47
2022-11-26T15:50:30.944Z,6.00
2022-11-26T15:53:02.603Z,6.47
2022-11-26T15:55:32.265Z,6.53
2022-11-26T15:58:03.699Z,6.50
2022-11-26T16:00:33.332Z,6.47
2022-11-26T16:03:01.744Z,6.00
2022-11-26T16:05:33.125Z,6.23
2022-11-26T16:08:03.628Z,6.37
2022-11-26T16:10:35.554Z,6.50
2022-11-26T16:13:08.896Z,6.33
2022-11-26T16:15:37.635Z,6.40
2022-11-26T16:18:06.400Z,5.77
2022-11-26T16:20:34.735Z,5.30
2022-11-26T16:23:04.452Z,6.67
2022-11-26T16:25:37.241Z,5.53
2022-11-26T16:28:06.740Z,7.17
2022-11-26T16:30:36.015Z,6.73
2022-11-26T16:33:04.406Z,7.23
2022-11-26T16:35:48.130Z,8.70
2022-11-26T16:38:21.711Z,8.17
2022-11-26T16:40:50.441Z,6.00
2022-11-26T16:43:18.813Z,6.93
2022-11-26T16:45:47.524Z,6.00
2022-11-26T16:48:20.320Z,6.00
2022-11-26T16:50:48.773Z,5.40
2022-11-26T16:53:17.101Z,5.90
2022-11-26T16:55:46.917Z,5.03
2022-11-26T16:58:18.217Z,4.87
2022-11-26T17:00:46.503Z,5.47
2022-11-26T17:03:14.950Z,4.97
2022-11-26T17:05:43.392Z,5.90
2022-11-26T17:08:13.159Z,5.83
2022-11-26T17:10:41.834Z,5.53
2022-11-26T17:13:11.453Z,6.57
2022-11-26T17:15:39.713Z,6.50
2022-11-26T17:18:12.962Z,5.87
2022-11-26T17:20:41.329Z,5.77
2022-11-26T17:23:09.623Z,5.90
2022-11-26T17:25:37.934Z,6.77
2022-11-26T17:28:07.438Z,6.03
2022-11-26T17:30:37.188Z,5.97
2022-11-26T17:33:05.604Z,6.17
2022-11-26T17:35:33.998Z,5.20
2022-11-26T17:38:02.569Z,6.37
2022-11-26T17:40:30.833Z,5.63
2022-11-26T17:42:59.121Z,6.00
2022-11-26T17:45:27.393Z,5.60
2022-11-26T17:47:57.071Z,4.87
2022-11-26T17:50:26.061Z,4.80
2022-11-26T17:52:54.911Z,6.43
2022-11-26T17:55:23.650Z,5.67
2022-11-26T17:57:52.252Z,5.40
2022-11-26T18:00:21.748Z,4.90
2022-11-26T18:02:50.291Z,5.50
2022-11-26T18:05:19.995Z,6.00
2022-11-26T18:07:49.821Z,6.33
2022-11-26T18:10:19.695Z,5.27
2022-11-26T18:12:48.239Z,5.57
2022-11-26T18:15:20.351Z,6.07
2022-11-26T18:17:50.728Z,5.57
2022-11-26T18:20:21.769Z,6.00
2022-11-26T18:22:51.814Z,6.43
2022-11-26T18:25:20.134Z,6.77
2022-11-26T18:27:48.566Z,6.40
2022-11-26T18:30:17.206Z,6.37
2022-11-26T18:32:45.526Z,7.13
2022-11-26T18:35:14.088Z,7.77
2022-11-26T18:37:43.939Z,8.17
2022-11-26T18:40:13.574Z,8.00
2022-11-26T18:42:41.938Z,8.80
2022-11-26T18:45:11.891Z,6.93
2022-11-26T18:47:40.567Z,12.47
2022-11-26T18:50:09.437Z,11.20
2022-11-26T18:52:37.811Z,10.70
2022-11-26T18:55:08.703Z,9.80
2022-11-26T18:57:37.188Z,9.63
2022-11-26T19:00:05.848Z,9.43
2022-11-26T19:02:35.400Z,9.90
2022-11-26T19:05:03.706Z,9.83
2022-11-26T19:07:33.115Z,9.70
2022-11-26T19:10:01.562Z,7.93
2022-11-26T19:12:31.490Z,7.03
2022-11-26T19:14:59.762Z,8.80
2022-11-26T19:17:28.048Z,8.53
2022-11-26T19:19:56.331Z,7.90
2022-11-26T19:22:24.654Z,8.43
2022-11-26T19:24:53.013Z,6.83
2022-11-26T19:27:21.336Z,7.83
2022-11-26T19:29:50.989Z,7.30
2022-11-26T19:32:19.336Z,7.47
2022-11-26T19:34:47.680Z,6.87
2022-11-26T19:37:16.006Z,7.23
2022-11-26T19:39:44.378Z,6.93
2022-11-26T19:42:13.009Z,7.00
2022-11-26T19:44:41.321Z,6.90
2022-11-26T19:47:10.968Z,7.10
2022-11-26T19:49:39.611Z,6.37
2022-11-26T19:52:08.175Z,6.93
2022-11-26T19:54:36.503Z,7.63
2022-11-26T19:57:04.882Z,8.20
2022-11-26T19:59:33.264Z,7.50
2022-11-26T20:02:01.944Z,6.90
2022-11-26T20:04:31.751Z,7.20
2022-11-26T20:07:00.127Z,6.50
2022-11-26T20:09:28.637Z,6.83
2022-11-26T20:11:56.936Z,7.20
2022-11-26T20:14:25.210Z,7.83
2022-11-26T20:16:57.757Z,8.43
2022-11-26T20:19:29.387Z,8.43
2022-11-26T20:21:59.174Z,8.57
2022-11-26T20:24:27.497Z,7.07
2022-11-26T20:26:55.911Z,7.50
2022-11-26T20:29:25.222Z,6.37
2022-11-26T20:31:54.384Z,7.07
2022-11-26T20:34:23.714Z,6.07
2022-11-26T20:36:52.035Z,7.00
2022-11-26T20:39:24.301Z,6.30
2022-11-26T20:41:52.715Z,7.30
2022-11-26T20:44:20.970Z,7.53
2022-11-26T20:46:49.334Z,6.73
2022-11-26T20:49:17.632Z,5.93
2022-11-26T20:51:45.927Z,6.10
2022-11-26T20:54:14.195Z,7.17
2022-11-26T20:56:44.035Z,5.80
2022-11-26T20:59:12.549Z,5.77
2022-11-26T21:01:40.971Z,5.40
2022-11-26T21:04:09.442Z,5.33
2022-11-26T21:06:37.716Z,5.67
2022-11-26T21:09:07.416Z,5.80
2022-11-26T21:11:36.320Z,6.10
2022-11-26T21:14:09.467Z,5.90
2022-11-26T21:16:40.444Z,6.20
2022-11-26T21:19:08.783Z,5.77
2022-11-26T21:21:37.360Z,5.53
2022-11-26T21:24:06.226Z,5.90
2022-11-26T21:26:34.572Z,5.70
2022-11-26T21:29:03.402Z,5.27
2022-11-26T21:31:33.441Z,5.90
2022-11-26T21:34:02.804Z,5.67
2022-11-26T21:36:32.301Z,6.13
2022-11-26T21:39:00.633Z,5.50
2022-11-26T21:41:29.709Z,5.90
2022-11-26T21:44:02.379Z,5.57
2022-11-26T21:46:34.973Z,5.53
2022-11-26T21:49:08.356Z,5.30
2022-11-26T21:51:46.764Z,6.10
2022-11-26T21:54:15.052Z,5.80
2022-11-26T21:56:43.318Z,5.40
2022-11-26T21:59:11.991Z,6.10
2022-11-26T22:01:40.351Z,5.23
2022-11-26T22:04:12.123Z,6.97
2022-11-26T22:06:40.937Z,6.17
2022-11-26T22:09:09.832Z,6.30
2022-11-26T22:11:39.266Z,5.63
2022-11-26T22:14:08.007Z,5.90
2022-11-26T22:16:36.583Z,5.83
2022-11-26T22:19:05.470Z,5.83
2022-11-26T22:21:35.962Z,5.40
2022-11-26T22:24:04.883Z,5.73
2022-11-26T22:26:33.695Z,5.30
2022-11-26T22:29:02.095Z,5.40
2022-11-26T22:31:31.379Z,6.30
2022-11-26T22:34:01.099Z,5.63
2022-11-26T22:36:29.621Z,5.90
2022-11-26T22:38:59.719Z,7.00
2022-11-26T22:41:28.422Z,5.83
2022-11-26T22:43:56.878Z,5.23
2022-11-26T22:46:25.495Z,5.63
2022-11-26T22:48:55.322Z,6.33
2022-11-26T22:51:24.143Z,6.00
2022-11-26T22:53:52.619Z,5.73
2022-11-26T22:56:25.027Z,5.60
2022-11-26T22:58:53.419Z,6.03
2022-11-26T23:01:22.453Z,6.00
2022-11-26T23:03:51.265Z,5.70
2022-11-26T23:06:20.972Z,5.80
2022-11-26T23:08:49.568Z,7.67
2022-11-26T23:11:19.168Z,5.97
2022-11-26T23:13:49.669Z,6.33
2022-11-26T23:16:18.030Z,5.77
2022-11-26T23:18:46.983Z,5.53
2022-11-26T23:21:17.031Z,5.23
2022-11-26T23:23:45.577Z,6.20
2022-11-26T23:26:15.074Z,6.27
2022-11-26T23:28:43.354Z,8.00
2022-11-26T23:31:15.709Z,9.00
2022-11-26T23:33:44.281Z,7.97
2022-11-26T23:36:12.885Z,7.07
2022-11-26T23:38:41.287Z,8.30
2022-11-26T23:41:10.012Z,7.43
2022-11-26T23:43:38.860Z,6.73
2022-11-26T23:46:08.116Z,7.33
2022-11-26T23:48:37.805Z,7.40
2022-11-26T23:51:07.853Z,5.53
2022-11-26T23:53:36.921Z,5.83
2022-11-26T23:56:05.951Z,4.60
2022-11-26T23:58:34.328Z,5.03
